Saturday, November 18, 2017, 1:29 AM EST
Back to Local

KHVN, Tweed-new Haven Airport

Location: East Haven, CT, United States Lat: 41.267
Local Time: 1:29 AM EST ( 6:29 GMT) Lon: -72.883
Time Zone: US/Eastern Elev: 13 ft

Show me the last for .
Show Decoded

2017-11-18 00:53 METAR KHVN 180553Z AUTO VRB04KT 10SM SCT120 02/M09 A3005 RMK AO2 SLP174
                 T00221089 10050 20011 50003 =
2017-11-17 23:53 METAR KHVN 180453Z AUTO 33004KT 10SM CLR 02/M09 A3006 RMK AO2 SLP177 T00171094
                 400940017 =
2017-11-17 22:53 METAR KHVN 180353Z AUTO VRB04KT 10SM CLR 03/M10 A3005 RMK AO2 SLP177 T00331100 =
2017-11-17 21:53 METAR KHVN 180253Z 29004KT 10SM CLR 03/M09 A3004 RMK AO2 SLP171 T00331089 58004
                 =
2017-11-17 20:53 METAR KHVN 180153Z 29005KT 10SM CLR 04/M08 A3005 RMK AO2 SLP176 T00391078 =
2017-11-17 19:53 METAR KHVN 180053Z 31006KT 10SM CLR 05/M09 A3007 RMK AO2 PRESRR SLP183 T00501089
                 =
2017-11-17 18:53 METAR KHVN 172353Z 31004KT 10SM CLR 05/M09 A3005 RMK AO2 SLP175 T00501094 10094
                 20044 51009 =
2017-11-17 17:53 METAR KHVN 172253Z 34009KT 10SM FEW250 06/M09 A3005 RMK AO2 SLP174 T00561089 =
2017-11-17 16:53 METAR KHVN 172153Z 32009KT 10SM FEW250 07/M08 A3003 RMK AO2 SLP169 T00721078 =
2017-11-17 15:53 METAR KHVN 172053Z 32008KT 10SM SCT250 08/M09 A3002 RMK AO2 SLP166 T00831094
                 53014 =
2017-11-17 14:53 METAR KHVN 171953Z 32011KT 10SM CLR 09/M08 A3000 RMK AO2 SLP157 T00891083 =
2017-11-17 13:53 METAR KHVN 171853Z 31010G21KT 10SM CLR 09/M07 A2999 RMK AO2 SLP155 T00941072 =
2017-11-17 12:53 METAR KHVN 171753Z 30013G23KT 10SM CLR 08/M05 A2998 RMK AO2 SLP152 T00831050
                 10083 20044 55011 =
2017-11-17 11:53 METAR KHVN 171653Z 32010G20KT 10SM CLR 08/M05 A2998 RMK AO2 PK WND 34026/1617
                 SLP151 T00781050 =
2017-11-17 10:53 METAR KHVN 171553Z 30011G19KT 10SM FEW040 07/M03 A3001 RMK AO2 SLP160 T00671033
                 =
2017-11-17 09:53 METAR KHVN 171453Z 33010G20KT 10SM SCT040 06/M04 A3001 RMK AO2 SLP163 T00611039
                 51018 =
2017-11-17 08:53 METAR KHVN 171353Z 32013G23KT 280V360 10SM SCT040 06/M04 A3000 RMK AO2 SLP159
                 T00561044 =
2017-11-17 07:53 METAR KHVN 171253Z 32013G22KT 10SM SCT040 05/M04 A2998 RMK AO2 SLP152 T00501039
                 =
2017-11-17 06:53 METAR KHVN 171153Z 32010G20KT 10SM SCT040 05/M03 A2996 RMK AO2 SLP145 60000
                 70023 T00501028 10072 20050 51035 =
2017-11-17 05:53 METAR KHVN 171053Z 32011G24KT 10SM SCT040 06/M02 A2993 RMK AO2 SLP135 T00561022
                 =
2017-11-17 04:53 METAR KHVN 170953Z AUTO 32014G22KT 10SM CLR 06/M02 A2990 RMK AO2 PK WND
                 30026/0857 SLP125 T00611017 =
2017-11-17 03:53 METAR KHVN 170853Z AUTO 30015G28KT 10SM CLR 07/M01 A2986 RMK AO2 PK WND
                 29028/0847 SLP110 60000 T00671011 51011 =
2017-11-17 02:53 METAR KHVN 170753Z AUTO 29008G14KT 10SM CLR 06/01 A2986 RMK AO2 RAB12E22 SLP109
                 P0000 T00610011 =
2017-11-17 01:53 METAR KHVN 170653Z AUTO 30009G20KT 10SM CLR 07/01 A2984 RMK AO2 SLP105 T00720006
                 =

Support USWX by starting your Amazon purchase here.